Time;durP1;ratioP1;P1;durP2;ratioP2;P2;SDS_P1;SDS_P2;PMS_P1;PMS_P2;Temp;Humidity;BMP_temperature;BMP_pressure;BME280_temperature;BME280_humidity;BME280_pressure;Samples;Min_cycle;Max_cycle;Signal;HPM_P1;HPM_P2
2022/05/29 00:00:15;;;;;;;;;;;17.70;52.20;;;;;;5052554;28;19939;-71
2022/05/29 00:02:41;;;;;;;;;;;17.60;52.20;;;;;;5060125;28;20762;-70
2022/05/29 00:05:09;;;;;;;;;;;17.60;52.10;;;;;;5062696;28;20449;-67
2022/05/29 00:07:36;;;;;;;;;;;17.60;52.00;;;;;;5065219;28;19929;-69
2022/05/29 00:10:06;;;;;;;;;;;17.60;51.90;;;;;;5062772;28;19936;-67
2022/05/29 00:12:32;;;;;;;;;;;17.50;51.80;;;;;;5059174;28;20304;-67
2022/05/29 00:14:59;;;;;;;;;;;17.50;51.80;;;;;;5055693;28;20405;-67
2022/05/29 00:17:27;;;;;;;;;;;17.50;51.90;;;;;;5057705;28;19928;-68
2022/05/29 00:19:54;;;;;;;;;;;17.50;51.70;;;;;;5057474;28;19935;-68
2022/05/29 00:22:22;;;;;;;;;;;17.40;51.80;;;;;;5061601;28;20660;-68
2022/05/29 00:24:50;;;;;;;;;;;17.40;51.80;;;;;;5062654;28;19933;-69
2022/05/29 00:27:17;;;;;;;;;;;17.40;51.90;;;;;;5059084;28;20754;-72
2022/05/29 00:29:44;;;;;;;;;;;17.40;51.90;;;;;;5058474;28;19936;-67
2022/05/29 00:32:11;;;;;;;;;;;17.40;52.60;;;;;;5061811;28;20335;-70
2022/05/29 00:34:40;;;;;;;;;;;17.30;51.90;;;;;;5058524;28;19936;-65
2022/05/29 00:37:07;;;;;;;;;;;17.30;51.90;;;;;;5060806;28;19935;-69
2022/05/29 00:39:35;;;;;;;;;;;17.30;51.90;;;;;;5058834;28;20011;-70
2022/05/29 00:42:04;;;;;;;;;;;17.30;52.10;;;;;;5062447;28;19936;-67
2022/05/29 00:44:31;;;;;;;;;;;17.20;52.00;;;;;;5059951;28;19929;-69
2022/05/29 00:46:59;;;;;;;;;;;17.30;51.90;;;;;;5059425;28;19928;-68
2022/05/29 00:49:27;;;;;;;;;;;17.20;52.00;;;;;;5063435;28;20618;-70
2022/05/29 00:51:59;;;;;;;;;;;17.20;52.00;;;;;;5060704;28;20199;-69
2022/05/29 00:54:25;;;;;;;;;;;17.20;52.10;;;;;;5062381;28;19932;-67
2022/05/29 00:56:52;;;;;;;;;;;17.10;52.00;;;;;;5056469;28;20508;-72
2022/05/29 00:59:21;;;;;;;;;;;17.10;52.10;;;;;;5061862;28;19932;-68
2022/05/29 01:01:47;;;;;;;;;;;17.10;52.60;;;;;;5053907;28;20019;-72
2022/05/29 01:04:14;;;;;;;;;;;17.10;52.10;;;;;;5064113;28;19936;-67
2022/05/29 01:06:40;;;;;;;;;;;17.10;52.10;;;;;;5063736;28;20695;-71
2022/05/29 01:09:10;;;;;;;;;;;17.10;52.10;;;;;;5052868;28;20911;-70
2022/05/29 01:11:44;;;;;;;;;;;17.10;51.80;;;;;;5060384;28;19928;-69
2022/05/29 01:14:16;;;;;;;;;;;17.00;51.90;;;;;;5055418;28;19939;-68
2022/05/29 01:16:47;;;;;;;;;;;17.00;52.00;;;;;;5058865;28;19932;-68
2022/05/29 01:19:24;;;;;;;;;;;17.00;52.00;;;;;;5052661;28;19932;-70
2022/05/29 01:21:59;;;;;;;;;;;17.00;52.10;;;;;;5059568;28;19936;-68
2022/05/29 01:24:41;;;;;;;;;;;17.00;52.00;;;;;;5050798;28;19928;-67
2022/05/29 01:27:22;;;;;;;;;;;16.90;52.20;;;;;;5061061;28;19932;-67
2022/05/29 01:29:54;;;;;;;;;;;16.90;52.30;;;;;;5052164;28;19936;-66
2022/05/29 01:32:25;;;;;;;;;;;16.90;52.90;;;;;;5056938;28;20637;-67
2022/05/29 01:34:53;;;;;;;;;;;16.90;52.50;;;;;;5061010;28;19937;-68
2022/05/29 01:37:22;;;;;;;;;;;16.80;52.50;;;;;;5059737;28;19925;-65
2022/05/29 01:39:51;;;;;;;;;;;16.80;52.80;;;;;;5058040;28;19982;-71
2022/05/29 01:42:19;;;;;;;;;;;16.80;52.80;;;;;;5060246;28;19928;-70
2022/05/29 01:44:48;;;;;;;;;;;16.80;52.80;;;;;;5058037;28;19924;-68
2022/05/29 01:47:18;;;;;;;;;;;16.80;53.00;;;;;;5051052;28;20388;-71
2022/05/29 01:49:47;;;;;;;;;;;16.70;53.00;;;;;;5058228;28;20698;-71
2022/05/29 01:52:16;;;;;;;;;;;16.70;53.10;;;;;;5059451;28;19932;-68
2022/05/29 01:54:45;;;;;;;;;;;16.70;53.20;;;;;;5056155;28;20404;-68
2022/05/29 01:57:14;;;;;;;;;;;16.70;53.20;;;;;;5054977;28;19924;-71
2022/05/29 01:59:43;;;;;;;;;;;16.70;53.30;;;;;;5051491;28;20750;-70
2022/05/29 02:02:12;;;;;;;;;;;16.60;53.20;;;;;;5053045;28;19935;-72
2022/05/29 02:04:41;;;;;;;;;;;16.60;53.20;;;;;;5051496;28;19928;-67
2022/05/29 02:09:58;;;;;;;;;;;16.60;53.20;;;;;;5051898;28;19936;-71
2022/05/29 02:12:26;;;;;;;;;;;16.60;53.30;;;;;;5058476;28;19960;-71
2022/05/29 02:14:56;;;;;;;;;;;16.50;53.20;;;;;;5056674;28;19940;-68
2022/05/29 02:17:26;;;;;;;;;;;16.50;53.40;;;;;;5056411;28;19928;-71
2022/05/29 02:19:58;;;;;;;;;;;16.50;53.40;;;;;;5053932;28;19932;-71
2022/05/29 02:22:27;;;;;;;;;;;16.50;53.40;;;;;;5053076;28;19928;-72
2022/05/29 02:24:56;;;;;;;;;;;16.50;53.40;;;;;;5055995;28;19951;-70
2022/05/29 02:27:27;;;;;;;;;;;16.50;53.60;;;;;;5053179;28;19940;-68
2022/05/29 02:29:53;;;;;;;;;;;16.40;53.70;;;;;;5056087;28;19932;-73
2022/05/29 02:32:25;;;;;;;;;;;16.40;53.70;;;;;;5054378;28;19928;-68
2022/05/29 02:34:56;;;;;;;;;;;16.40;53.80;;;;;;5055593;28;19947;-69
2022/05/29 02:37:28;;;;;;;;;;;16.40;53.90;;;;;;5053700;28;19928;-71
2022/05/29 02:39:59;;;;;;;;;;;16.40;54.10;;;;;;5056600;28;19928;-67
2022/05/29 02:42:28;;;;;;;;;;;16.30;54.10;;;;;;5055090;28;19928;-68
2022/05/29 02:45:03;;;;;;;;;;;16.30;54.30;;;;;;5053874;28;20647;-68
2022/05/29 02:47:32;;;;;;;;;;;16.30;54.10;;;;;;5058027;28;19929;-69
2022/05/29 02:50:04;;;;;;;;;;;16.20;54.30;;;;;;5055818;28;19935;-70
2022/05/29 02:52:32;;;;;;;;;;;16.20;54.40;;;;;;5052500;28;20427;-69
2022/05/29 02:54:58;;;;;;;;;;;16.20;54.30;;;;;;5061439;28;19929;-70
2022/05/29 02:57:26;;;;;;;;;;;16.20;54.40;;;;;;5057308;28;19935;-71
2022/05/29 02:59:56;;;;;;;;;;;16.10;54.50;;;;;;5049806;28;19938;-69
2022/05/29 03:02:28;;;;;;;;;;;16.20;54.50;;;;;;5055761;28;19932;-68
2022/05/29 03:04:57;;;;;;;;;;;16.20;54.60;;;;;;5056806;28;20391;-67
2022/05/29 03:07:28;;;;;;;;;;;16.10;54.50;;;;;;5056901;28;20023;-69
2022/05/29 03:10:02;;;;;;;;;;;16.10;54.50;;;;;;5050930;28;19929;-71
2022/05/29 03:12:33;;;;;;;;;;;16.10;54.70;;;;;;5057749;28;19928;-68
2022/05/29 03:15:03;;;;;;;;;;;16.00;54.70;;;;;;5055805;28;19936;-71
2022/05/29 03:17:34;;;;;;;;;;;16.10;54.80;;;;;;5050335;28;19940;-71
2022/05/29 03:20:09;;;;;;;;;;;16.00;54.70;;;;;;5055204;28;19940;-69
2022/05/29 03:22:41;;;;;;;;;;;16.00;54.80;;;;;;5052350;28;19928;-65
2022/05/29 03:25:12;;;;;;;;;;;16.00;54.70;;;;;;5057797;28;20043;-68
2022/05/29 03:27:41;;;;;;;;;;;16.00;54.70;;;;;;5057316;28;19935;-66
2022/05/29 03:30:10;;;;;;;;;;;15.90;54.80;;;;;;5051983;28;19932;-68
2022/05/29 03:32:37;;;;;;;;;;;15.90;54.80;;;;;;5056804;28;19928;-67
2022/05/29 03:35:16;;;;;;;;;;;15.90;54.80;;;;;;5059045;28;20502;-69
2022/05/29 03:37:43;;;;;;;;;;;15.90;54.80;;;;;;5056894;28;20036;-66
2022/05/29 03:40:12;;;;;;;;;;;15.90;54.80;;;;;;5053688;28;19935;-69
2022/05/29 03:42:38;;;;;;;;;;;15.80;54.80;;;;;;5057999;28;19935;-68
2022/05/29 03:45:06;;;;;;;;;;;15.80;54.90;;;;;;5052182;28;19933;-68
2022/05/29 03:47:32;;;;;;;;;;;15.80;54.90;;;;;;5052746;28;19929;-70
2022/05/29 03:49:59;;;;;;;;;;;15.70;54.90;;;;;;5050269;28;19930;-69
2022/05/29 03:52:26;;;;;;;;;;;15.80;55.00;;;;;;5050560;28;19924;-67
2022/05/29 03:54:52;;;;;;;;;;;15.70;55.00;;;;;;5058650;28;20419;-69
2022/05/29 03:57:20;;;;;;;;;;;15.70;55.20;;;;;;5057073;28;19939;-68
2022/05/29 03:59:47;;;;;;;;;;;15.70;55.20;;;;;;5051469;28;20328;-74
2022/05/29 04:02:13;;;;;;;;;;;15.70;55.20;;;;;;5053197;28;19931;-70
2022/05/29 04:04:40;;;;;;;;;;;15.60;55.10;;;;;;5053004;28;19935;-68
2022/05/29 04:07:06;;;;;;;;;;;15.60;55.30;;;;;;5056760;28;19936;-68
2022/05/29 04:12:18;;;;;;;;;;;15.60;55.50;;;;;;5062273;28;19931;-69
2022/05/29 04:14:45;;;;;;;;;;;15.60;55.70;;;;;;5058499;28;20015;-69
2022/05/29 04:17:13;;;;;;;;;;;15.50;55.90;;;;;;5058010;28;19939;-70
2022/05/29 04:19:40;;;;;;;;;;;15.60;56.10;;;;;;5061999;28;19928;-73
2022/05/29 04:22:08;;;;;;;;;;;15.60;56.30;;;;;;5055949;28;19928;-67
2022/05/29 04:24:34;;;;;;;;;;;15.50;56.40;;;;;;5054757;28;19972;-68
2022/05/29 04:27:01;;;;;;;;;;;15.50;56.70;;;;;;5060621;28;19947;-65
2022/05/29 04:29:28;;;;;;;;;;;15.50;56.70;;;;;;5055692;28;19929;-67
2022/05/29 04:34:40;;;;;;;;;;;15.50;57.30;;;;;;5060334;28;19994;-66
2022/05/29 04:37:06;;;;;;;;;;;15.50;57.70;;;;;;5059592;28;20693;-74
2022/05/29 04:39:35;;;;;;;;;;;15.40;57.90;;;;;;5058214;28;19960;-67
2022/05/29 04:42:02;;;;;;;;;;;15.40;58.10;;;;;;5058307;28;20471;-69
2022/05/29 04:44:29;;;;;;;;;;;15.40;58.20;;;;;;5065550;28;19925;-68
2022/05/29 04:46:58;;;;;;;;;;;15.40;58.50;;;;;;5058834;28;19928;-69
2022/05/29 04:49:25;;;;;;;;;;;15.40;58.60;;;;;;5066180;28;19936;-67
2022/05/29 04:51:51;;;;;;;;;;;15.40;58.60;;;;;;5061720;28;19955;-70
2022/05/29 04:54:18;;;;;;;;;;;15.30;58.80;;;;;;5058303;28;19955;-68
2022/05/29 04:56:46;;;;;;;;;;;15.30;59.00;;;;;;5053492;28;19935;-70
2022/05/29 04:59:12;;;;;;;;;;;15.30;59.30;;;;;;5055982;28;20475;-69
2022/05/29 05:01:39;;;;;;;;;;;15.30;59.40;;;;;;5051734;28;20407;-67
2022/05/29 05:04:07;;;;;;;;;;;15.30;59.50;;;;;;5062598;28;20048;-68
2022/05/29 05:06:34;;;;;;;;;;;15.30;59.80;;;;;;5062758;28;19934;-67
2022/05/29 05:09:01;;;;;;;;;;;15.20;59.90;;;;;;5057389;28;20312;-66
2022/05/29 05:11:27;;;;;;;;;;;15.20;59.90;;;;;;5060393;28;20381;-68
2022/05/29 05:13:54;;;;;;;;;;;15.20;60.00;;;;;;5059953;28;20437;-69
2022/05/29 05:16:20;;;;;;;;;;;15.20;60.00;;;;;;5052579;28;19929;-66
2022/05/29 05:18:47;;;;;;;;;;;15.20;60.20;;;;;;5057497;28;19928;-70
2022/05/29 05:21:15;;;;;;;;;;;15.10;60.30;;;;;;5058592;28;20331;-68
2022/05/29 05:23:41;;;;;;;;;;;15.10;60.40;;;;;;5078684;28;20600;-70
2022/05/29 05:26:09;;;;;;;;;;;15.10;60.40;;;;;;5077719;28;20479;-71
2022/05/29 05:28:36;;;;;;;;;;;15.10;60.60;;;;;;5075577;28;19975;-65
2022/05/29 05:31:03;;;;;;;;;;;15.10;60.60;;;;;;5076677;28;20018;-69
2022/05/29 05:33:29;;;;;;;;;;;15.10;60.60;;;;;;5081153;28;19935;-73
2022/05/29 05:35:56;;;;;;;;;;;15.10;60.90;;;;;;5081492;28;19935;-67
2022/05/29 05:38:24;;;;;;;;;;;15.10;61.00;;;;;;5076659;28;19928;-69
2022/05/29 05:40:51;;;;;;;;;;;15.10;60.90;;;;;;5070485;28;19928;-69
2022/05/29 05:43:19;;;;;;;;;;;15.10;60.90;;;;;;5076525;28;20388;-67
2022/05/29 05:45:47;;;;;;;;;;;15.00;61.10;;;;;;5072196;28;19936;-71
2022/05/29 05:48:14;;;;;;;;;;;15.00;61.30;;;;;;5074452;28;20034;-69
2022/05/29 05:50:40;;;;;;;;;;;15.00;61.10;;;;;;5072399;28;19928;-67
2022/05/29 05:53:07;;;;;;;;;;;15.00;61.20;;;;;;5077386;28;19935;-69
2022/05/29 05:55:39;;;;;;;;;;;15.00;61.40;;;;;;5078599;28;20406;-69
2022/05/29 05:58:05;;;;;;;;;;;15.00;61.30;;;;;;5073611;28;19932;-69
2022/05/29 06:00:32;;;;;;;;;;;15.00;61.20;;;;;;5067950;28;20528;-67
2022/05/29 06:02:58;;;;;;;;;;;14.90;61.20;;;;;;5075104;28;19928;-69
2022/05/29 06:05:26;;;;;;;;;;;14.90;61.10;;;;;;5069087;28;19936;-68
2022/05/29 06:07:53;;;;;;;;;;;14.90;61.30;;;;;;5067496;28;20007;-67
2022/05/29 06:10:19;;;;;;;;;;;14.90;61.30;;;;;;5071509;28;19943;-68
2022/05/29 06:12:47;;;;;;;;;;;14.90;61.60;;;;;;5072633;28;20018;-69
2022/05/29 06:15:14;;;;;;;;;;;14.90;61.50;;;;;;5071559;28;19928;-70
2022/05/29 06:17:40;;;;;;;;;;;14.90;61.60;;;;;;5068284;28;19932;-67
2022/05/29 06:20:07;;;;;;;;;;;14.80;61.50;;;;;;5072882;28;19931;-67
2022/05/29 06:22:36;;;;;;;;;;;14.90;61.80;;;;;;5078684;28;19986;-70
2022/05/29 06:25:02;;;;;;;;;;;14.80;61.60;;;;;;5079960;28;19925;-68
2022/05/29 06:27:29;;;;;;;;;;;14.80;61.60;;;;;;5070361;28;20711;-67
2022/05/29 06:29:57;;;;;;;;;;;14.80;61.50;;;;;;5074177;28;19924;-66
2022/05/29 06:32:23;;;;;;;;;;;14.70;61.50;;;;;;5070314;28;19932;-70
2022/05/29 06:34:50;;;;;;;;;;;14.70;61.60;;;;;;5072214;28;19936;-70
2022/05/29 06:37:16;;;;;;;;;;;14.80;61.70;;;;;;5077929;28;19928;-71
2022/05/29 06:39:43;;;;;;;;;;;14.80;61.70;;;;;;5073912;28;19936;-71
2022/05/29 06:42:09;;;;;;;;;;;14.70;61.40;;;;;;5082296;28;20310;-68
2022/05/29 06:44:37;;;;;;;;;;;14.70;61.20;;;;;;5081756;28;20002;-66
2022/05/29 06:47:07;;;;;;;;;;;14.70;62.20;;;;;;5079609;28;20577;-67
2022/05/29 06:49:33;;;;;;;;;;;14.70;61.30;;;;;;5077733;28;19935;-71
2022/05/29 06:52:00;;;;;;;;;;;14.70;61.50;;;;;;5067423;28;19928;-72
2022/05/29 06:54:26;;;;;;;;;;;14.70;61.50;;;;;;5074912;28;19935;-66
2022/05/29 06:56:53;;;;;;;;;;;14.70;61.60;;;;;;5068826;28;20485;-70
2022/05/29 06:59:21;;;;;;;;;;;14.70;61.50;;;;;;5076161;28;20773;-67
2022/05/29 07:07:18;;;;;;;;;;;14.70;61.30;;;;;;5076691;28;19943;-70
2022/05/29 07:09:44;;;;;;;;;;;14.70;61.30;;;;;;5075095;28;19935;-68
2022/05/29 07:12:13;;;;;;;;;;;14.70;61.30;;;;;;5070765;28;19928;-70
2022/05/29 07:14:41;;;;;;;;;;;14.70;61.10;;;;;;5073150;28;19962;-69
2022/05/29 07:17:07;;;;;;;;;;;14.80;61.30;;;;;;5069212;28;19943;-66
2022/05/29 07:19:35;;;;;;;;;;;14.70;60.90;;;;;;5072221;28;19928;-67
2022/05/29 07:22:02;;;;;;;;;;;14.70;60.90;;;;;;5079451;28;19950;-68
2022/05/29 07:24:29;;;;;;;;;;;14.80;60.60;;;;;;5074999;28;20528;-70
2022/05/29 07:26:56;;;;;;;;;;;14.70;60.60;;;;;;5070242;28;20013;-68
2022/05/29 07:29:23;;;;;;;;;;;14.80;60.50;;;;;;5075163;28;19928;-71
2022/05/29 07:31:51;;;;;;;;;;;14.70;60.30;;;;;;5070656;28;19924;-65
2022/05/29 07:34:17;;;;;;;;;;;14.80;60.30;;;;;;5078635;28;20673;-69
2022/05/29 07:36:45;;;;;;;;;;;14.80;60.50;;;;;;5072140;28;19932;-67
2022/05/29 07:39:12;;;;;;;;;;;14.80;60.20;;;;;;5068426;28;19932;-71
2022/05/29 07:44:22;;;;;;;;;;;14.90;60.00;;;;;;5077239;28;19935;-69
2022/05/29 07:46:49;;;;;;;;;;;14.90;59.80;;;;;;5078177;28;19987;-65
2022/05/29 07:49:16;;;;;;;;;;;14.90;59.90;;;;;;5080614;28;19933;-70
2022/05/29 07:51:42;;;;;;;;;;;14.90;59.70;;;;;;5074946;28;19940;-67
2022/05/29 07:54:10;;;;;;;;;;;15.00;59.60;;;;;;5075579;28;19932;-71
2022/05/29 07:56:37;;;;;;;;;;;15.00;59.70;;;;;;5079802;28;19935;-65
2022/05/29 07:59:03;;;;;;;;;;;15.00;59.70;;;;;;5078464;28;20384;-68
2022/05/29 08:01:30;;;;;;;;;;;15.00;59.60;;;;;;5076108;28;19924;-67
2022/05/29 08:03:56;;;;;;;;;;;15.00;59.70;;;;;;5079152;28;19940;-67
2022/05/29 08:06:23;;;;;;;;;;;15.00;59.80;;;;;;5075010;28;19933;-70
2022/05/29 08:08:49;;;;;;;;;;;15.00;59.80;;;;;;5074417;28;19928;-66
2022/05/29 08:11:18;;;;;;;;;;;14.90;59.70;;;;;;5079191;28;19935;-71
2022/05/29 08:13:45;;;;;;;;;;;15.00;59.70;;;;;;5075381;28;20021;-70
2022/05/29 08:16:17;;;;;;;;;;;15.00;59.70;;;;;;5073676;28;19957;-71
2022/05/29 08:18:43;;;;;;;;;;;15.00;59.70;;;;;;5073384;28;19940;-68
2022/05/29 08:21:10;;;;;;;;;;;14.90;59.70;;;;;;5080563;28;19928;-66
2022/05/29 08:23:40;;;;;;;;;;;14.90;59.70;;;;;;5074841;28;19933;-68
2022/05/29 08:31:42;;;;;;;;;;;15.00;59.80;;;;;;5018747;28;20091;-69
2022/05/29 08:34:08;;;;;;;;;;;15.00;59.70;;;;;;5077893;28;19935;-67
2022/05/29 08:36:36;;;;;;;;;;;14.90;59.70;;;;;;5075024;28;19936;-70
2022/05/29 08:39:02;;;;;;;;;;;14.90;59.90;;;;;;5076737;28;20446;-67
2022/05/29 08:41:34;;;;;;;;;;;15.00;59.90;;;;;;5073296;28;19934;-69
2022/05/29 08:44:06;;;;;;;;;;;14.90;60.00;;;;;;5074731;28;20035;-68
2022/05/29 08:46:36;;;;;;;;;;;15.00;60.40;;;;;;5073973;28;20361;-67
2022/05/29 08:49:02;;;;;;;;;;;14.90;60.30;;;;;;5074223;28;20066;-67
2022/05/29 08:51:36;;;;;;;;;;;14.90;60.40;;;;;;5070248;28;19932;-73
2022/05/29 08:54:08;;;;;;;;;;;15.00;60.50;;;;;;5071158;28;19928;-75
2022/05/29 08:56:37;;;;;;;;;;;15.00;60.60;;;;;;5081473;28;19933;-77
2022/05/29 08:59:09;;;;;;;;;;;14.90;61.60;;;;;;5079190;28;19939;-76
2022/05/29 09:01:42;;;;;;;;;;;14.80;65.10;;;;;;5082368;28;19935;-75
2022/05/29 09:04:11;;;;;;;;;;;14.80;66.20;;;;;;5072958;28;19939;-73
2022/05/29 09:06:41;;;;;;;;;;;14.60;68.10;;;;;;5078627;28;19924;-72
2022/05/29 09:09:13;;;;;;;;;;;14.60;69.80;;;;;;5076236;28;19954;-77
2022/05/29 09:11:44;;;;;;;;;;;14.50;71.10;;;;;;5077022;28;20023;-75
2022/05/29 09:14:17;;;;;;;;;;;14.40;71.60;;;;;;5075403;28;19928;-74
2022/05/29 09:16:45;;;;;;;;;;;14.50;72.30;;;;;;5073502;28;20407;-76
2022/05/29 09:19:15;;;;;;;;;;;14.50;71.60;;;;;;5075251;28;19939;-76
2022/05/29 09:21:48;;;;;;;;;;;14.50;70.90;;;;;;5075330;28;19943;-73
2022/05/29 09:24:22;;;;;;;;;;;14.50;71.00;;;;;;5073045;28;19932;-73
2022/05/29 09:26:48;;;;;;;;;;;14.50;71.30;;;;;;5076258;28;21862;-75
2022/05/29 09:29:16;;;;;;;;;;;14.50;72.00;;;;;;5073180;28;19932;-74
2022/05/29 09:31:43;;;;;;;;;;;14.50;72.30;;;;;;5074256;28;19962;-74
2022/05/29 09:34:11;;;;;;;;;;;14.60;72.00;;;;;;5084876;28;20612;-73
2022/05/29 09:36:42;;;;;;;;;;;14.60;72.80;;;;;;5078205;28;20303;-77
2022/05/29 09:39:11;;;;;;;;;;;14.60;72.90;;;;;;5080784;28;19935;-77
2022/05/29 09:41:41;;;;;;;;;;;14.60;72.40;;;;;;5075034;28;19928;-74
2022/05/29 09:44:10;;;;;;;;;;;14.60;72.50;;;;;;5072065;28;20038;-74
2022/05/29 09:46:39;;;;;;;;;;;14.70;72.90;;;;;;5069250;28;19943;-76
2022/05/29 09:51:57;;;;;;;;;;;14.70;73.00;;;;;;5078095;28;20727;-75
2022/05/29 09:54:27;;;;;;;;;;;14.70;73.00;;;;;;5072650;28;19936;-76
2022/05/29 09:56:54;;;;;;;;;;;14.80;72.90;;;;;;5070284;28;19936;-75
2022/05/29 09:59:22;;;;;;;;;;;14.80;72.70;;;;;;5072022;28;19967;-76
2022/05/29 10:02:01;;;;;;;;;;;14.80;72.90;;;;;;5076393;28;21004;-76
2022/05/29 10:04:34;;;;;;;;;;;14.90;73.00;;;;;;5071724;28;20019;-75
2022/05/29 10:07:01;;;;;;;;;;;14.90;72.80;;;;;;5080811;28;19934;-77
2022/05/29 10:09:28;;;;;;;;;;;14.90;72.40;;;;;;5084658;28;19928;-75
2022/05/29 10:11:56;;;;;;;;;;;15.00;71.90;;;;;;5074576;28;19928;-76
2022/05/29 10:14:24;;;;;;;;;;;15.00;71.50;;;;;;5073781;28;19939;-76
2022/05/29 10:16:53;;;;;;;;;;;15.10;71.20;;;;;;5071529;28;19928;-75
2022/05/29 10:19:34;;;;;;;;;;;15.10;71.10;;;;;;5075193;28;20055;-76
2022/05/29 10:22:02;;;;;;;;;;;15.20;71.60;;;;;;5078435;28;20412;-75
2022/05/29 10:24:32;;;;;;;;;;;15.20;70.20;;;;;;5075144;28;20005;-76
2022/05/29 10:27:00;;;;;;;;;;;15.20;70.40;;;;;;5074401;28;19928;-77
2022/05/29 10:29:28;;;;;;;;;;;15.30;70.30;;;;;;5072127;28;19928;-75
2022/05/29 10:31:57;;;;;;;;;;;15.40;69.80;;;;;;5072751;28;20023;-76
2022/05/29 10:34:25;;;;;;;;;;;15.50;69.50;;;;;;5075810;28;19936;-76
2022/05/29 10:36:52;;;;;;;;;;;15.40;69.00;;;;;;5072629;28;20659;-75
2022/05/29 10:39:20;;;;;;;;;;;15.50;69.20;;;;;;5077250;28;19928;-77
2022/05/29 10:41:47;;;;;;;;;;;15.50;68.90;;;;;;5076303;28;19928;-79
2022/05/29 10:44:36;;;;;;;;;;;15.60;68.50;;;;;;5074803;28;21250;-76
2022/05/29 10:47:06;;;;;;;;;;;15.70;67.90;;;;;;5073024;28;19931;-77
2022/05/29 10:49:34;;;;;;;;;;;15.70;67.60;;;;;;5070577;28;19936;-77
2022/05/29 10:52:18;;;;;;;;;;;15.70;67.60;;;;;;5078444;28;19934;-77
2022/05/29 10:54:53;;;;;;;;;;;15.80;67.00;;;;;;5067760;28;20411;-77
2022/05/29 10:57:25;;;;;;;;;;;15.90;66.70;;;;;;5080634;28;20663;-74
2022/05/29 10:59:58;;;;;;;;;;;15.90;66.60;;;;;;5074514;28;20660;-74
2022/05/29 11:05:26;;;;;;;;;;;16.00;65.50;;;;;;5072706;28;19935;-76
2022/05/29 11:07:59;;;;;;;;;;;16.20;65.00;;;;;;5072526;28;19935;-75
2022/05/29 11:10:46;;;;;;;;;;;16.10;64.30;;;;;;5078448;28;19935;-75
2022/05/29 11:13:18;;;;;;;;;;;16.30;63.30;;;;;;5076002;28;19937;-77
2022/05/29 11:15:51;;;;;;;;;;;16.30;63.70;;;;;;5071347;28;19932;-76
2022/05/29 11:18:31;;;;;;;;;;;16.40;63.90;;;;;;5074582;28;19932;-75
2022/05/29 11:21:00;;;;;;;;;;;16.50;63.90;;;;;;5079322;28;19936;-75
2022/05/29 11:23:37;;;;;;;;;;;16.60;63.60;;;;;;5075518;28;19925;-76
2022/05/29 11:26:10;;;;;;;;;;;16.60;62.70;;;;;;5078505;28;19935;-75
2022/05/29 11:28:51;;;;;;;;;;;16.60;62.50;;;;;;5085898;28;19934;-76
2022/05/29 11:31:28;;;;;;;;;;;16.70;62.90;;;;;;5069153;28;20288;-75
2022/05/29 11:34:05;;;;;;;;;;;16.80;62.80;;;;;;5069909;28;20621;-78
2022/05/29 11:36:37;;;;;;;;;;;16.80;63.10;;;;;;5068267;28;20360;-74
2022/05/29 11:39:13;;;;;;;;;;;16.80;62.20;;;;;;5069462;28;20552;-75
2022/05/29 11:41:42;;;;;;;;;;;16.80;61.40;;;;;;5073033;28;20307;-76
2022/05/29 11:44:18;;;;;;;;;;;16.80;60.20;;;;;;5075998;28;19928;-75
2022/05/29 11:52:20;;;;;;;;;;;16.80;59.60;;;;;;5074085;28;19935;-75
2022/05/29 11:54:50;;;;;;;;;;;16.80;60.00;;;;;;5079986;28;19934;-76
2022/05/29 11:57:19;;;;;;;;;;;16.80;60.40;;;;;;5074933;28;19935;-75
2022/05/29 11:59:49;;;;;;;;;;;16.80;61.20;;;;;;5070194;28;20027;-78
2022/05/29 12:02:21;;;;;;;;;;;16.70;62.20;;;;;;5067494;28;20007;-76
2022/05/29 12:04:53;;;;;;;;;;;16.80;62.60;;;;;;5070875;28;19935;-75
2022/05/29 12:07:23;;;;;;;;;;;16.70;63.10;;;;;;5072623;28;19935;-74
2022/05/29 12:09:54;;;;;;;;;;;16.70;63.30;;;;;;5074956;28;19937;-75
2022/05/29 12:12:24;;;;;;;;;;;16.70;63.80;;;;;;5074443;28;19951;-74
2022/05/29 12:14:52;;;;;;;;;;;16.70;64.10;;;;;;5075508;28;19964;-75
2022/05/29 12:17:20;;;;;;;;;;;16.70;64.10;;;;;;5076847;28;20414;-75
2022/05/29 12:19:48;;;;;;;;;;;16.60;63.90;;;;;;5072599;28;19928;-76
2022/05/29 12:22:18;;;;;;;;;;;16.60;64.50;;;;;;5076040;28;19932;-75
2022/05/29 12:24:46;;;;;;;;;;;16.60;65.20;;;;;;5074253;28;19935;-76
2022/05/29 12:27:14;;;;;;;;;;;16.60;65.30;;;;;;5078945;28;19971;-78
2022/05/29 12:29:44;;;;;;;;;;;16.70;65.20;;;;;;5074667;28;20443;-77
2022/05/29 12:32:13;;;;;;;;;;;16.60;64.80;;;;;;5082133;28;19943;-76
2022/05/29 12:34:43;;;;;;;;;;;16.60;64.90;;;;;;5085491;28;20387;-75
2022/05/29 12:37:21;;;;;;;;;;;16.70;65.00;;;;;;5080778;28;20460;-76
2022/05/29 12:40:02;;;;;;;;;;;16.60;64.80;;;;;;5072125;28;20388;-75
2022/05/29 12:42:46;;;;;;;;;;;16.70;64.80;;;;;;5075918;28;19928;-76
2022/05/29 12:45:28;;;;;;;;;;;16.70;65.00;;;;;;5071708;28;20292;-77
2022/05/29 12:48:09;;;;;;;;;;;16.70;63.90;;;;;;5064609;28;19928;-75
2022/05/29 12:50:57;;;;;;;;;;;16.80;63.90;;;;;;5075292;28;20380;-76
2022/05/29 12:53:39;;;;;;;;;;;16.80;63.50;;;;;;5079689;28;19947;-79
2022/05/29 12:56:12;;;;;;;;;;;16.80;63.50;;;;;;5086744;28;19940;-78
2022/05/29 12:58:51;;;;;;;;;;;16.90;62.60;;;;;;5083207;28;19935;-78
2022/05/29 13:01:24;;;;;;;;;;;16.90;61.70;;;;;;5081895;28;20439;-80
2022/05/29 13:04:05;;;;;;;;;;;17.00;60.60;;;;;;5076189;28;19928;-75
2022/05/29 13:06:40;;;;;;;;;;;17.00;59.80;;;;;;5069017;28;19928;-75
2022/05/29 13:09:18;;;;;;;;;;;17.00;59.20;;;;;;5063022;28;19928;-74
2022/05/29 13:11:51;;;;;;;;;;;17.20;59.00;;;;;;5075089;28;19928;-73
2022/05/29 13:14:19;;;;;;;;;;;17.20;59.00;;;;;;5069774;28;19963;-76
2022/05/29 13:16:46;;;;;;;;;;;17.30;58.90;;;;;;5070086;28;19932;-75
2022/05/29 13:19:14;;;;;;;;;;;17.40;58.70;;;;;;5079293;28;19928;-78
2022/05/29 13:21:58;;;;;;;;;;;17.50;59.10;;;;;;5083292;28;19928;-75
2022/05/29 13:24:25;;;;;;;;;;;17.50;58.40;;;;;;5074144;28;19957;-78
2022/05/29 13:27:11;;;;;;;;;;;17.50;57.00;;;;;;5073812;28;19939;-75
2022/05/29 13:29:40;;;;;;;;;;;17.60;56.30;;;;;;5071220;28;19935;-75
2022/05/29 13:32:17;;;;;;;;;;;17.70;56.20;;;;;;5077385;28;19936;-77
2022/05/29 13:34:44;;;;;;;;;;;17.70;56.40;;;;;;5072398;28;19936;-74
2022/05/29 13:37:21;;;;;;;;;;;17.80;56.50;;;;;;5071414;28;19932;-74
2022/05/29 13:40:06;;;;;;;;;;;17.80;57.60;;;;;;5072659;28;19929;-74
2022/05/29 13:42:37;;;;;;;;;;;17.90;57.40;;;;;;5072230;28;19929;-74
2022/05/29 13:45:22;;;;;;;;;;;18.00;56.20;;;;;;5067619;28;20416;-75
2022/05/29 13:47:53;;;;;;;;;;;18.00;56.20;;;;;;5073740;28;19968;-74
2022/05/29 13:50:24;;;;;;;;;;;18.10;55.90;;;;;;5073621;28;20712;-74
2022/05/29 13:52:52;;;;;;;;;;;18.20;57.00;;;;;;5073780;28;19957;-74
2022/05/29 13:55:21;;;;;;;;;;;18.20;57.70;;;;;;5076669;28;20326;-75
2022/05/29 14:06:18;;;;;;;;;;;18.40;57.10;;;;;;5072138;28;20021;-75
2022/05/29 14:08:50;;;;;;;;;;;18.50;56.50;;;;;;5072089;28;19928;-76
2022/05/29 14:11:17;;;;;;;;;;;18.50;56.00;;;;;;5070628;28;19939;-78
2022/05/29 14:13:45;;;;;;;;;;;18.50;56.30;;;;;;5072102;28;19972;-75
2022/05/29 14:16:17;;;;;;;;;;;18.60;56.70;;;;;;5073571;28;20751;-77
2022/05/29 14:18:48;;;;;;;;;;;18.60;55.30;;;;;;5072779;28;19928;-77
2022/05/29 14:21:22;;;;;;;;;;;18.70;54.80;;;;;;5069812;28;20311;-77
2022/05/29 14:23:56;;;;;;;;;;;18.70;54.20;;;;;;5074511;28;19928;-73
2022/05/29 14:26:49;;;;;;;;;;;18.70;54.90;;;;;;5072071;28;19924;-75
2022/05/29 14:29:25;;;;;;;;;;;18.70;54.40;;;;;;5073225;28;19967;-77
2022/05/29 14:31:57;;;;;;;;;;;18.80;54.80;;;;;;5074355;28;19932;-74
2022/05/29 14:34:34;;;;;;;;;;;18.80;54.40;;;;;;5073416;28;20454;-75
2022/05/29 14:37:06;;;;;;;;;;;18.90;53.70;;;;;;5072326;28;19932;-75
2022/05/29 14:39:35;;;;;;;;;;;18.90;54.20;;;;;;5073399;28;19928;-75
2022/05/29 14:42:02;;;;;;;;;;;19.00;52.70;;;;;;5068445;28;19932;-76
2022/05/29 14:44:33;;;;;;;;;;;19.00;54.40;;;;;;5069446;28;20540;-78
2022/05/29 14:47:07;;;;;;;;;;;19.10;53.50;;;;;;5071871;28;19929;-75
2022/05/29 14:49:44;;;;;;;;;;;19.20;52.20;;;;;;5070588;28;19928;-74
2022/05/29 14:52:16;;;;;;;;;;;19.30;54.00;;;;;;5072398;28;20403;-75
2022/05/29 14:54:46;;;;;;;;;;;19.30;53.00;;;;;;5074453;28;19950;-77
2022/05/29 14:57:17;;;;;;;;;;;19.50;52.10;;;;;;5068926;28;19933;-78
2022/05/29 14:59:44;;;;;;;;;;;19.50;51.50;;;;;;5069854;28;19963;-74
2022/05/29 15:02:14;;;;;;;;;;;19.60;51.60;;;;;;5074166;28;20723;-77
2022/05/29 15:04:42;;;;;;;;;;;19.60;50.80;;;;;;5070535;28;19936;-74
2022/05/29 15:12:40;;;;;;;;;;;19.80;49.40;;;;;;5074378;28;19935;-76
2022/05/29 15:15:17;;;;;;;;;;;19.80;49.60;;;;;;5071585;28;19932;-78
2022/05/29 15:17:44;;;;;;;;;;;19.90;49.60;;;;;;5072046;28;20308;-78